Harrington, Maine
Current Conditions -  °F | °C
As of 5:55 PM on Friday 31 Oct 2014 (Local Time) from KBHB Reporting Station
Overcast Overcast  
Wind Chill: 46°   Ceiling: 3800
Heat Index: 48°   Visibility: 10mi
Dew Point: 39°   Wind: 5mph
Humidity: 71%   Direction: 360°N
Pressure: 30.03"   Gusts: NA
Location:  44.61°N, 67.82°W
Report Text: KBHB 312155Z AUTO 36004KT 10SM BKN038 OVC047 09/04 A3003 RMK AO1
Loading
Personal Weather Stations






























Interactive Weather Map
Tropical Storm Tracking
New forecast layout! Learn more

10-Day Weather Forecast

Advertisements
Track Severe Weather on mobile